sensor_id;sensor_type;location;lat;lon;timestamp;P1;durP1;ratioP1;P2;durP2;ratioP2
71298;SDS011;59083;47.974;21.722;2023-02-15T00:01:22;28.20;;;11.70;;
71298;SDS011;59083;47.974;21.722;2023-02-15T00:04:24;29.90;;;12.05;;
71298;SDS011;59083;47.974;21.722;2023-02-15T00:07:45;26.12;;;11.65;;
71298;SDS011;59083;47.974;21.722;2023-02-15T00:10:47;31.33;;;11.70;;
71298;SDS011;59083;47.974;21.722;2023-02-15T00:13:48;26.70;;;11.70;;
71298;SDS011;59083;47.974;21.722;2023-02-15T00:16:50;27.47;;;10.87;;
71298;SDS011;59083;47.974;21.722;2023-02-15T00:19:52;27.33;;;11.82;;
71298;SDS011;59083;47.974;21.722;2023-02-15T00:22:54;29.17;;;12.10;;
71298;SDS011;59083;47.974;21.722;2023-02-15T00:26:11;26.67;;;10.70;;
71298;SDS011;59083;47.974;21.722;2023-02-15T00:29:15;26.55;;;11.00;;
71298;SDS011;59083;47.974;21.722;2023-02-15T00:32:18;26.43;;;11.10;;
71298;SDS011;59083;47.974;21.722;2023-02-15T00:35:21;25.75;;;11.15;;
71298;SDS011;59083;47.974;21.722;2023-02-15T00:38:22;29.15;;;11.45;;
71298;SDS011;59083;47.974;21.722;2023-02-15T00:41:24;27.02;;;10.98;;
71298;SDS011;59083;47.974;21.722;2023-02-15T00:44:25;25.83;;;10.57;;
71298;SDS011;59083;47.974;21.722;2023-02-15T00:47:26;29.13;;;11.00;;
71298;SDS011;59083;47.974;21.722;2023-02-15T00:50:27;25.83;;;11.12;;
71298;SDS011;59083;47.974;21.722;2023-02-15T00:53:29;26.80;;;11.55;;
71298;SDS011;59083;47.974;21.722;2023-02-15T00:56:30;28.02;;;10.65;;
71298;SDS011;59083;47.974;21.722;2023-02-15T00:59:32;29.45;;;10.73;;
71298;SDS011;59083;47.974;21.722;2023-02-15T01:02:33;27.17;;;11.07;;
71298;SDS011;59083;47.974;21.722;2023-02-15T01:05:36;28.35;;;10.63;;
71298;SDS011;59083;47.974;21.722;2023-02-15T01:08:38;29.23;;;12.05;;
71298;SDS011;59083;47.974;21.722;2023-02-15T01:11:42;29.85;;;11.60;;
71298;SDS011;59083;47.974;21.722;2023-02-15T01:14:43;25.95;;;11.15;;
71298;SDS011;59083;47.974;21.722;2023-02-15T01:17:44;28.07;;;10.67;;
71298;SDS011;59083;47.974;21.722;2023-02-15T01:20:51;28.75;;;10.68;;
71298;SDS011;59083;47.974;21.722;2023-02-15T01:23:53;25.40;;;11.40;;
71298;SDS011;59083;47.974;21.722;2023-02-15T01:26:54;29.17;;;11.00;;
71298;SDS011;59083;47.974;21.722;2023-02-15T01:29:56;22.95;;;10.23;;
71298;SDS011;59083;47.974;21.722;2023-02-15T01:32:57;24.17;;;11.03;;
71298;SDS011;59083;47.974;21.722;2023-02-15T01:35:59;25.10;;;11.00;;
71298;SDS011;59083;47.974;21.722;2023-02-15T01:39:00;25.98;;;10.82;;
71298;SDS011;59083;47.974;21.722;2023-02-15T01:42:02;24.40;;;10.52;;
71298;SDS011;59083;47.974;21.722;2023-02-15T01:45:04;25.23;;;11.15;;
71298;SDS011;59083;47.974;21.722;2023-02-15T01:48:22;24.97;;;9.73;;
71298;SDS011;59083;47.974;21.722;2023-02-15T01:51:28;23.75;;;9.82;;
71298;SDS011;59083;47.974;21.722;2023-02-15T01:54:34;27.20;;;11.48;;
71298;SDS011;59083;47.974;21.722;2023-02-15T01:57:38;30.37;;;11.82;;
71298;SDS011;59083;47.974;21.722;2023-02-15T02:00:40;30.33;;;12.10;;
71298;SDS011;59083;47.974;21.722;2023-02-15T02:07:04;27.77;;;11.55;;
71298;SDS011;59083;47.974;21.722;2023-02-15T02:10:08;30.00;;;12.30;;
71298;SDS011;59083;47.974;21.722;2023-02-15T02:13:12;25.27;;;10.80;;
71298;SDS011;59083;47.974;21.722;2023-02-15T02:23:31;28.67;;;11.65;;
71298;SDS011;59083;47.974;21.722;2023-02-15T02:33:39;31.23;;;11.80;;
71298;SDS011;59083;47.974;21.722;2023-02-15T02:36:52;27.73;;;12.37;;
71298;SDS011;59083;47.974;21.722;2023-02-15T02:46:26;26.45;;;11.80;;
71298;SDS011;59083;47.974;21.722;2023-02-15T02:49:33;26.23;;;11.80;;
71298;SDS011;59083;47.974;21.722;2023-02-15T02:52:44;28.60;;;12.10;;
71298;SDS011;59083;47.974;21.722;2023-02-15T02:55:51;32.17;;;11.32;;
71298;SDS011;59083;47.974;21.722;2023-02-15T02:59:04;31.35;;;13.02;;
71298;SDS011;59083;47.974;21.722;2023-02-15T03:02:16;29.37;;;12.30;;
71298;SDS011;59083;47.974;21.722;2023-02-15T03:05:22;32.05;;;12.40;;
71298;SDS011;59083;47.974;21.722;2023-02-15T03:08:36;30.73;;;12.30;;
71298;SDS011;59083;47.974;21.722;2023-02-15T03:11:47;31.20;;;11.60;;
71298;SDS011;59083;47.974;21.722;2023-02-15T03:14:52;31.90;;;12.70;;
71298;SDS011;59083;47.974;21.722;2023-02-15T03:18:02;32.20;;;11.80;;
71298;SDS011;59083;47.974;21.722;2023-02-15T03:21:04;30.35;;;12.00;;
71298;SDS011;59083;47.974;21.722;2023-02-15T03:24:12;32.70;;;12.60;;
71298;SDS011;59083;47.974;21.722;2023-02-15T03:27:19;32.85;;;12.32;;
71298;SDS011;59083;47.974;21.722;2023-02-15T03:30:24;31.58;;;12.13;;
71298;SDS011;59083;47.974;21.722;2023-02-15T03:33:28;31.02;;;12.30;;
71298;SDS011;59083;47.974;21.722;2023-02-15T03:36:43;31.52;;;13.23;;
71298;SDS011;59083;47.974;21.722;2023-02-15T03:39:55;31.13;;;12.43;;
71298;SDS011;59083;47.974;21.722;2023-02-15T03:43:24;31.67;;;12.30;;
71298;SDS011;59083;47.974;21.722;2023-02-15T03:53:37;32.50;;;13.32;;
71298;SDS011;59083;47.974;21.722;2023-02-15T03:56:40;30.07;;;12.60;;
71298;SDS011;59083;47.974;21.722;2023-02-15T04:00:04;32.95;;;13.45;;
71298;SDS011;59083;47.974;21.722;2023-02-15T04:03:49;29.73;;;13.00;;
71298;SDS011;59083;47.974;21.722;2023-02-15T04:06:58;29.08;;;12.60;;
71298;SDS011;59083;47.974;21.722;2023-02-15T04:10:00;35.83;;;13.90;;
71298;SDS011;59083;47.974;21.722;2023-02-15T04:13:23;34.80;;;12.67;;
71298;SDS011;59083;47.974;21.722;2023-02-15T04:16:31;31.15;;;12.30;;
71298;SDS011;59083;47.974;21.722;2023-02-15T04:19:32;32.42;;;12.70;;
71298;SDS011;59083;47.974;21.722;2023-02-15T04:22:52;35.63;;;13.35;;
71298;SDS011;59083;47.974;21.722;2023-02-15T04:26:12;31.25;;;12.90;;
71298;SDS011;59083;47.974;21.722;2023-02-15T04:29:14;35.03;;;13.67;;
71298;SDS011;59083;47.974;21.722;2023-02-15T04:32:16;39.08;;;13.75;;
71298;SDS011;59083;47.974;21.722;2023-02-15T04:35:17;32.17;;;13.02;;
71298;SDS011;59083;47.974;21.722;2023-02-15T04:38:18;37.63;;;13.88;;
71298;SDS011;59083;47.974;21.722;2023-02-15T04:41:20;39.30;;;14.18;;
71298;SDS011;59083;47.974;21.722;2023-02-15T04:44:21;34.70;;;13.03;;
71298;SDS011;59083;47.974;21.722;2023-02-15T04:47:22;36.67;;;14.18;;
71298;SDS011;59083;47.974;21.722;2023-02-15T04:50:23;37.95;;;14.15;;
71298;SDS011;59083;47.974;21.722;2023-02-15T04:53:25;34.45;;;14.02;;
71298;SDS011;59083;47.974;21.722;2023-02-15T04:56:26;33.50;;;13.32;;
71298;SDS011;59083;47.974;21.722;2023-02-15T04:59:27;37.57;;;13.87;;
71298;SDS011;59083;47.974;21.722;2023-02-15T05:02:28;34.00;;;12.65;;
71298;SDS011;59083;47.974;21.722;2023-02-15T05:05:29;33.25;;;13.73;;
71298;SDS011;59083;47.974;21.722;2023-02-15T05:08:31;35.55;;;13.93;;
71298;SDS011;59083;47.974;21.722;2023-02-15T05:11:32;35.63;;;13.48;;
71298;SDS011;59083;47.974;21.722;2023-02-15T05:14:33;45.10;;;15.77;;
71298;SDS011;59083;47.974;21.722;2023-02-15T05:17:34;43.55;;;15.10;;
71298;SDS011;59083;47.974;21.722;2023-02-15T05:20:36;39.78;;;14.10;;
71298;SDS011;59083;47.974;21.722;2023-02-15T05:23:37;65.78;;;22.08;;
71298;SDS011;59083;47.974;21.722;2023-02-15T05:26:38;36.38;;;14.55;;
71298;SDS011;59083;47.974;21.722;2023-02-15T05:29:58;35.90;;;14.67;;
71298;SDS011;59083;47.974;21.722;2023-02-15T05:32:59;36.50;;;15.18;;
71298;SDS011;59083;47.974;21.722;2023-02-15T05:36:00;42.55;;;15.95;;
71298;SDS011;59083;47.974;21.722;2023-02-15T05:39:02;35.50;;;14.27;;
71298;SDS011;59083;47.974;21.722;2023-02-15T05:42:06;39.97;;;16.50;;
71298;SDS011;59083;47.974;21.722;2023-02-15T05:45:07;36.30;;;14.37;;
71298;SDS011;59083;47.974;21.722;2023-02-15T05:48:09;37.75;;;14.73;;
71298;SDS011;59083;47.974;21.722;2023-02-15T05:51:11;37.35;;;14.15;;
71298;SDS011;59083;47.974;21.722;2023-02-15T05:54:17;36.65;;;13.52;;
71298;SDS011;59083;47.974;21.722;2023-02-15T05:57:18;31.02;;;13.62;;
71298;SDS011;59083;47.974;21.722;2023-02-15T06:00:20;37.53;;;13.77;;
71298;SDS011;59083;47.974;21.722;2023-02-15T06:03:22;37.15;;;13.57;;
71298;SDS011;59083;47.974;21.722;2023-02-15T06:06:24;35.85;;;14.93;;
71298;SDS011;59083;47.974;21.722;2023-02-15T06:09:25;46.72;;;14.48;;
71298;SDS011;59083;47.974;21.722;2023-02-15T06:12:26;34.67;;;13.27;;
71298;SDS011;59083;47.974;21.722;2023-02-15T06:15:27;34.80;;;14.60;;
71298;SDS011;59083;47.974;21.722;2023-02-15T06:18:29;32.45;;;12.50;;
71298;SDS011;59083;47.974;21.722;2023-02-15T06:21:30;38.97;;;15.32;;
71298;SDS011;59083;47.974;21.722;2023-02-15T06:24:32;34.65;;;15.45;;
71298;SDS011;59083;47.974;21.722;2023-02-15T06:27:33;37.05;;;14.95;;
71298;SDS011;59083;47.974;21.722;2023-02-15T06:30:34;35.47;;;15.53;;
71298;SDS011;59083;47.974;21.722;2023-02-15T06:33:35;34.88;;;15.07;;
71298;SDS011;59083;47.974;21.722;2023-02-15T06:36:36;38.03;;;16.58;;
71298;SDS011;59083;47.974;21.722;2023-02-15T06:39:38;58.45;;;24.33;;
71298;SDS011;59083;47.974;21.722;2023-02-15T06:42:39;50.88;;;20.12;;
71298;SDS011;59083;47.974;21.722;2023-02-15T06:45:41;43.20;;;18.33;;
71298;SDS011;59083;47.974;21.722;2023-02-15T06:48:43;45.03;;;16.35;;
71298;SDS011;59083;47.974;21.722;2023-02-15T06:51:44;47.78;;;18.92;;
71298;SDS011;59083;47.974;21.722;2023-02-15T06:54:45;40.83;;;17.17;;
71298;SDS011;59083;47.974;21.722;2023-02-15T06:57:46;39.58;;;16.30;;
71298;SDS011;59083;47.974;21.722;2023-02-15T07:00:48;90.93;;;33.73;;
71298;SDS011;59083;47.974;21.722;2023-02-15T07:03:50;44.67;;;18.73;;
71298;SDS011;59083;47.974;21.722;2023-02-15T07:06:51;40.97;;;16.45;;
71298;SDS011;59083;47.974;21.722;2023-02-15T07:09:52;38.83;;;16.55;;
71298;SDS011;59083;47.974;21.722;2023-02-15T07:12:54;36.83;;;15.65;;
71298;SDS011;59083;47.974;21.722;2023-02-15T07:15:55;42.57;;;18.00;;
71298;SDS011;59083;47.974;21.722;2023-02-15T07:18:56;43.00;;;18.67;;
71298;SDS011;59083;47.974;21.722;2023-02-15T07:21:57;43.25;;;18.12;;
71298;SDS011;59083;47.974;21.722;2023-02-15T07:24:58;42.42;;;16.73;;
71298;SDS011;59083;47.974;21.722;2023-02-15T07:28:00;39.15;;;16.55;;
71298;SDS011;59083;47.974;21.722;2023-02-15T07:31:03;41.30;;;16.07;;
71298;SDS011;59083;47.974;21.722;2023-02-15T07:34:06;49.90;;;16.90;;
71298;SDS011;59083;47.974;21.722;2023-02-15T07:37:08;42.67;;;17.98;;
71298;SDS011;59083;47.974;21.722;2023-02-15T07:40:09;41.97;;;15.70;;
71298;SDS011;59083;47.974;21.722;2023-02-15T07:43:11;35.97;;;14.30;;
71298;SDS011;59083;47.974;21.722;2023-02-15T07:46:13;35.33;;;14.93;;
71298;SDS011;59083;47.974;21.722;2023-02-15T07:49:17;34.70;;;14.32;;
71298;SDS011;59083;47.974;21.722;2023-02-15T07:52:18;39.10;;;15.90;;
71298;SDS011;59083;47.974;21.722;2023-02-15T07:55:19;38.78;;;15.70;;
71298;SDS011;59083;47.974;21.722;2023-02-15T07:58:20;37.53;;;16.17;;
71298;SDS011;59083;47.974;21.722;2023-02-15T08:01:41;37.47;;;14.67;;
71298;SDS011;59083;47.974;21.722;2023-02-15T08:04:43;39.47;;;15.63;;
71298;SDS011;59083;47.974;21.722;2023-02-15T08:07:44;33.83;;;14.07;;
71298;SDS011;59083;47.974;21.722;2023-02-15T08:10:45;32.97;;;14.43;;
71298;SDS011;59083;47.974;21.722;2023-02-15T08:14:06;36.40;;;14.70;;
71298;SDS011;59083;47.974;21.722;2023-02-15T08:17:12;37.10;;;14.67;;
71298;SDS011;59083;47.974;21.722;2023-02-15T08:20:13;34.83;;;13.82;;
71298;SDS011;59083;47.974;21.722;2023-02-15T08:23:14;33.38;;;13.50;;
71298;SDS011;59083;47.974;21.722;2023-02-15T08:26:15;36.60;;;14.73;;
71298;SDS011;59083;47.974;21.722;2023-02-15T08:29:18;37.30;;;15.05;;
71298;SDS011;59083;47.974;21.722;2023-02-15T08:32:21;31.20;;;13.10;;
71298;SDS011;59083;47.974;21.722;2023-02-15T08:35:23;37.38;;;15.18;;
71298;SDS011;59083;47.974;21.722;2023-02-15T08:38:24;32.40;;;13.38;;
71298;SDS011;59083;47.974;21.722;2023-02-15T08:41:26;32.00;;;13.43;;
71298;SDS011;59083;47.974;21.722;2023-02-15T08:44:35;35.97;;;14.13;;
71298;SDS011;59083;47.974;21.722;2023-02-15T08:47:36;38.07;;;14.13;;
71298;SDS011;59083;47.974;21.722;2023-02-15T08:50:37;35.90;;;14.27;;
71298;SDS011;59083;47.974;21.722;2023-02-15T08:53:39;30.52;;;13.35;;
71298;SDS011;59083;47.974;21.722;2023-02-15T08:56:42;34.03;;;13.13;;
71298;SDS011;59083;47.974;21.722;2023-02-15T08:59:44;29.75;;;12.98;;
71298;SDS011;59083;47.974;21.722;2023-02-15T09:02:45;31.23;;;12.10;;
71298;SDS011;59083;47.974;21.722;2023-02-15T09:05:47;33.17;;;13.50;;
71298;SDS011;59083;47.974;21.722;2023-02-15T09:08:48;34.22;;;12.80;;
71298;SDS011;59083;47.974;21.722;2023-02-15T09:11:51;35.35;;;14.27;;
71298;SDS011;59083;47.974;21.722;2023-02-15T09:14:52;32.65;;;14.80;;
71298;SDS011;59083;47.974;21.722;2023-02-15T09:17:53;31.20;;;12.03;;
71298;SDS011;59083;47.974;21.722;2023-02-15T09:20:55;30.17;;;13.13;;
71298;SDS011;59083;47.974;21.722;2023-02-15T09:24:00;34.33;;;13.00;;
71298;SDS011;59083;47.974;21.722;2023-02-15T09:27:05;33.75;;;12.80;;
71298;SDS011;59083;47.974;21.722;2023-02-15T09:30:08;34.10;;;12.80;;
71298;SDS011;59083;47.974;21.722;2023-02-15T09:33:12;29.47;;;13.33;;
71298;SDS011;59083;47.974;21.722;2023-02-15T09:36:21;31.23;;;13.18;;
71298;SDS011;59083;47.974;21.722;2023-02-15T09:39:26;29.05;;;12.35;;
71298;SDS011;59083;47.974;21.722;2023-02-15T09:46:02;35.72;;;13.52;;
71298;SDS011;59083;47.974;21.722;2023-02-15T09:49:24;32.30;;;13.30;;
71298;SDS011;59083;47.974;21.722;2023-02-15T09:55:58;28.95;;;12.48;;
71298;SDS011;59083;47.974;21.722;2023-02-15T09:59:12;31.95;;;13.30;;
71298;SDS011;59083;47.974;21.722;2023-02-15T10:02:32;33.55;;;12.65;;
71298;SDS011;59083;47.974;21.722;2023-02-15T10:09:02;28.70;;;12.52;;
71298;SDS011;59083;47.974;21.722;2023-02-15T10:15:39;30.45;;;12.40;;
71298;SDS011;59083;47.974;21.722;2023-02-15T10:18:53;31.80;;;13.75;;
71298;SDS011;59083;47.974;21.722;2023-02-15T10:28:52;35.53;;;15.55;;
71298;SDS011;59083;47.974;21.722;2023-02-15T10:32:00;31.60;;;13.65;;
71298;SDS011;59083;47.974;21.722;2023-02-15T10:35:23;31.15;;;13.25;;
71298;SDS011;59083;47.974;21.722;2023-02-15T10:48:59;29.60;;;12.35;;
71298;SDS011;59083;47.974;21.722;2023-02-15T10:52:21;28.73;;;12.88;;
71298;SDS011;59083;47.974;21.722;2023-02-15T10:55:45;24.23;;;11.23;;
71298;SDS011;59083;47.974;21.722;2023-02-15T10:59:00;31.62;;;13.00;;
71298;SDS011;59083;47.974;21.722;2023-02-15T11:05:34;28.95;;;12.45;;
71298;SDS011;59083;47.974;21.722;2023-02-15T11:08:43;33.90;;;12.88;;
71298;SDS011;59083;47.974;21.722;2023-02-15T11:11:48;28.63;;;12.40;;
71298;SDS011;59083;47.974;21.722;2023-02-15T11:14:54;29.75;;;12.23;;
71298;SDS011;59083;47.974;21.722;2023-02-15T11:18:06;24.00;;;11.68;;
71298;SDS011;59083;47.974;21.722;2023-02-15T11:21:17;27.02;;;12.23;;
71298;SDS011;59083;47.974;21.722;2023-02-15T11:24:20;34.83;;;13.38;;
71298;SDS011;59083;47.974;21.722;2023-02-15T11:27:30;28.23;;;12.37;;
71298;SDS011;59083;47.974;21.722;2023-02-15T11:30:54;28.60;;;13.27;;
71298;SDS011;59083;47.974;21.722;2023-02-15T11:33:58;28.42;;;12.37;;
71298;SDS011;59083;47.974;21.722;2023-02-15T11:37:10;27.30;;;12.90;;
71298;SDS011;59083;47.974;21.722;2023-02-15T11:40:21;29.77;;;13.15;;
71298;SDS011;59083;47.974;21.722;2023-02-15T11:43:28;32.83;;;13.40;;
71298;SDS011;59083;47.974;21.722;2023-02-15T11:46:36;33.33;;;13.15;;
71298;SDS011;59083;47.974;21.722;2023-02-15T11:49:38;33.85;;;13.48;;
71298;SDS011;59083;47.974;21.722;2023-02-15T11:52:39;28.98;;;12.57;;
71298;SDS011;59083;47.974;21.722;2023-02-15T11:55:44;29.73;;;13.07;;
71298;SDS011;59083;47.974;21.722;2023-02-15T11:59:00;29.70;;;13.33;;
71298;SDS011;59083;47.974;21.722;2023-02-15T12:02:19;29.98;;;13.43;;
71298;SDS011;59083;47.974;21.722;2023-02-15T12:05:23;29.42;;;12.85;;
71298;SDS011;59083;47.974;21.722;2023-02-15T12:08:25;31.40;;;12.93;;
71298;SDS011;59083;47.974;21.722;2023-02-15T12:11:43;28.60;;;12.70;;
71298;SDS011;59083;47.974;21.722;2023-02-15T12:14:58;31.40;;;13.83;;
71298;SDS011;59083;47.974;21.722;2023-02-15T12:18:01;30.20;;;14.00;;
71298;SDS011;59083;47.974;21.722;2023-02-15T12:21:04;31.73;;;13.45;;
71298;SDS011;59083;47.974;21.722;2023-02-15T12:24:18;26.92;;;12.90;;
71298;SDS011;59083;47.974;21.722;2023-02-15T12:27:28;30.52;;;12.98;;
71298;SDS011;59083;47.974;21.722;2023-02-15T12:30:32;29.23;;;12.13;;
71298;SDS011;59083;47.974;21.722;2023-02-15T12:33:41;32.45;;;13.40;;
71298;SDS011;59083;47.974;21.722;2023-02-15T12:36:47;33.85;;;12.77;;
71298;SDS011;59083;47.974;21.722;2023-02-15T12:39:52;29.37;;;13.40;;
71298;SDS011;59083;47.974;21.722;2023-02-15T12:42:55;31.62;;;14.05;;
71298;SDS011;59083;47.974;21.722;2023-02-15T12:49:34;26.65;;;12.30;;
71298;SDS011;59083;47.974;21.722;2023-02-15T12:52:38;31.02;;;13.15;;
71298;SDS011;59083;47.974;21.722;2023-02-15T12:58:51;40.42;;;14.98;;
71298;SDS011;59083;47.974;21.722;2023-02-15T13:02:05;33.20;;;13.60;;
71298;SDS011;59083;47.974;21.722;2023-02-15T13:08:44;31.95;;;14.20;;
71298;SDS011;59083;47.974;21.722;2023-02-15T13:11:48;29.08;;;13.05;;
71298;SDS011;59083;47.974;21.722;2023-02-15T13:14:50;32.53;;;14.38;;
71298;SDS011;59083;47.974;21.722;2023-02-15T13:17:53;33.13;;;13.00;;
71298;SDS011;59083;47.974;21.722;2023-02-15T13:20:56;31.75;;;13.90;;
71298;SDS011;59083;47.974;21.722;2023-02-15T13:24:04;29.63;;;13.38;;
71298;SDS011;59083;47.974;21.722;2023-02-15T13:27:10;30.52;;;13.85;;
71298;SDS011;59083;47.974;21.722;2023-02-15T13:30:18;27.13;;;13.07;;
71298;SDS011;59083;47.974;21.722;2023-02-15T13:33:39;32.10;;;12.93;;
71298;SDS011;59083;47.974;21.722;2023-02-15T13:39:48;28.75;;;14.38;;
71298;SDS011;59083;47.974;21.722;2023-02-15T13:42:58;31.27;;;13.60;;
71298;SDS011;59083;47.974;21.722;2023-02-15T13:52:51;31.15;;;13.85;;
71298;SDS011;59083;47.974;21.722;2023-02-15T13:56:19;29.30;;;14.55;;
71298;SDS011;59083;47.974;21.722;2023-02-15T14:02:56;31.70;;;13.50;;
71298;SDS011;59083;47.974;21.722;2023-02-15T14:09:48;32.38;;;13.43;;
71298;SDS011;59083;47.974;21.722;2023-02-15T14:12:58;36.35;;;15.40;;
71298;SDS011;59083;47.974;21.722;2023-02-15T14:16:20;33.80;;;14.40;;
71298;SDS011;59083;47.974;21.722;2023-02-15T14:20:00;33.22;;;13.95;;
71298;SDS011;59083;47.974;21.722;2023-02-15T14:26:35;31.77;;;13.32;;
71298;SDS011;59083;47.974;21.722;2023-02-15T14:29:56;30.60;;;13.35;;
71298;SDS011;59083;47.974;21.722;2023-02-15T14:33:01;30.42;;;13.18;;
71298;SDS011;59083;47.974;21.722;2023-02-15T14:36:07;36.67;;;15.23;;
71298;SDS011;59083;47.974;21.722;2023-02-15T14:43:00;30.45;;;14.55;;
71298;SDS011;59083;47.974;21.722;2023-02-15T14:49:40;36.25;;;15.68;;
71298;SDS011;59083;47.974;21.722;2023-02-15T14:56:21;35.63;;;14.60;;
71298;SDS011;59083;47.974;21.722;2023-02-15T14:59:23;32.13;;;14.70;;
71298;SDS011;59083;47.974;21.722;2023-02-15T15:05:47;32.63;;;14.77;;
71298;SDS011;59083;47.974;21.722;2023-02-15T15:08:51;30.92;;;13.35;;
71298;SDS011;59083;47.974;21.722;2023-02-15T15:12:15;31.10;;;13.37;;
71298;SDS011;59083;47.974;21.722;2023-02-15T15:18:43;33.70;;;14.73;;
71298;SDS011;59083;47.974;21.722;2023-02-15T15:24:51;35.90;;;13.88;;
71298;SDS011;59083;47.974;21.722;2023-02-15T15:27:55;32.27;;;13.53;;
71298;SDS011;59083;47.974;21.722;2023-02-15T15:30:57;33.78;;;13.68;;
71298;SDS011;59083;47.974;21.722;2023-02-15T15:38:23;33.40;;;13.85;;
71298;SDS011;59083;47.974;21.722;2023-02-15T15:41:41;34.05;;;14.70;;
71298;SDS011;59083;47.974;21.722;2023-02-15T15:48:38;34.22;;;13.98;;
71298;SDS011;59083;47.974;21.722;2023-02-15T15:51:41;34.17;;;14.00;;
71298;SDS011;59083;47.974;21.722;2023-02-15T15:54:44;34.42;;;14.40;;
71298;SDS011;59083;47.974;21.722;2023-02-15T15:57:50;33.42;;;14.25;;
71298;SDS011;59083;47.974;21.722;2023-02-15T16:01:04;36.37;;;14.90;;
71298;SDS011;59083;47.974;21.722;2023-02-15T16:04:13;32.38;;;14.95;;
71298;SDS011;59083;47.974;21.722;2023-02-15T16:07:23;39.20;;;16.95;;
71298;SDS011;59083;47.974;21.722;2023-02-15T16:10:27;46.35;;;19.23;;
71298;SDS011;59083;47.974;21.722;2023-02-15T16:13:32;49.38;;;20.62;;
71298;SDS011;59083;47.974;21.722;2023-02-15T16:16:34;47.73;;;19.30;;
71298;SDS011;59083;47.974;21.722;2023-02-15T16:19:37;46.65;;;20.35;;
71298;SDS011;59083;47.974;21.722;2023-02-15T16:22:41;43.50;;;19.10;;
71298;SDS011;59083;47.974;21.722;2023-02-15T16:29:26;49.53;;;20.83;;
71298;SDS011;59083;47.974;21.722;2023-02-15T16:32:29;42.87;;;17.33;;
71298;SDS011;59083;47.974;21.722;2023-02-15T16:35:31;59.17;;;19.48;;
71298;SDS011;59083;47.974;21.722;2023-02-15T16:41:43;46.22;;;19.35;;
71298;SDS011;59083;47.974;21.722;2023-02-15T16:48:19;50.37;;;18.73;;
71298;SDS011;59083;47.974;21.722;2023-02-15T16:51:23;43.03;;;18.48;;
71298;SDS011;59083;47.974;21.722;2023-02-15T16:54:28;45.10;;;18.45;;
71298;SDS011;59083;47.974;21.722;2023-02-15T16:57:32;45.22;;;18.40;;
71298;SDS011;59083;47.974;21.722;2023-02-15T17:00:37;45.03;;;18.62;;
71298;SDS011;59083;47.974;21.722;2023-02-15T17:03:41;41.97;;;18.03;;
71298;SDS011;59083;47.974;21.722;2023-02-15T17:06:43;46.15;;;19.30;;
71298;SDS011;59083;47.974;21.722;2023-02-15T17:13:38;48.97;;;21.17;;
71298;SDS011;59083;47.974;21.722;2023-02-15T17:19:55;52.73;;;21.00;;
71298;SDS011;59083;47.974;21.722;2023-02-15T17:22:56;54.80;;;22.60;;
71298;SDS011;59083;47.974;21.722;2023-02-15T17:25:58;72.43;;;29.15;;
71298;SDS011;59083;47.974;21.722;2023-02-15T17:32:19;52.70;;;20.15;;
71298;SDS011;59083;47.974;21.722;2023-02-15T17:35:24;50.30;;;21.23;;
71298;SDS011;59083;47.974;21.722;2023-02-15T17:38:29;52.10;;;20.50;;
71298;SDS011;59083;47.974;21.722;2023-02-15T17:41:35;46.65;;;19.25;;
71298;SDS011;59083;47.974;21.722;2023-02-15T17:44:38;45.35;;;18.98;;
71298;SDS011;59083;47.974;21.722;2023-02-15T17:47:39;45.95;;;20.42;;
71298;SDS011;59083;47.974;21.722;2023-02-15T17:50:41;43.77;;;18.03;;
71298;SDS011;59083;47.974;21.722;2023-02-15T17:53:42;45.92;;;18.95;;
71298;SDS011;59083;47.974;21.722;2023-02-15T17:57:13;44.55;;;17.95;;
71298;SDS011;59083;47.974;21.722;2023-02-15T18:00:15;46.80;;;19.50;;
71298;SDS011;59083;47.974;21.722;2023-02-15T18:06:58;54.27;;;21.93;;
71298;SDS011;59083;47.974;21.722;2023-02-15T18:10:18;47.72;;;20.88;;
71298;SDS011;59083;47.974;21.722;2023-02-15T18:13:38;48.00;;;20.50;;
71298;SDS011;59083;47.974;21.722;2023-02-15T18:16:40;46.97;;;18.98;;
71298;SDS011;59083;47.974;21.722;2023-02-15T18:19:44;46.63;;;19.23;;
71298;SDS011;59083;47.974;21.722;2023-02-15T18:22:46;41.43;;;17.40;;
71298;SDS011;59083;47.974;21.722;2023-02-15T18:25:47;48.60;;;19.40;;
71298;SDS011;59083;47.974;21.722;2023-02-15T18:28:51;49.72;;;19.92;;
71298;SDS011;59083;47.974;21.722;2023-02-15T18:31:52;46.97;;;19.77;;
71298;SDS011;59083;47.974;21.722;2023-02-15T18:34:56;44.58;;;17.83;;
71298;SDS011;59083;47.974;21.722;2023-02-15T18:37:59;47.47;;;20.13;;
71298;SDS011;59083;47.974;21.722;2023-02-15T18:41:01;53.65;;;21.23;;
71298;SDS011;59083;47.974;21.722;2023-02-15T18:44:07;49.60;;;20.45;;
71298;SDS011;59083;47.974;21.722;2023-02-15T18:47:12;48.55;;;19.90;;
71298;SDS011;59083;47.974;21.722;2023-02-15T18:50:13;45.00;;;19.30;;
71298;SDS011;59083;47.974;21.722;2023-02-15T18:53:17;47.47;;;19.87;;
71298;SDS011;59083;47.974;21.722;2023-02-15T18:56:21;44.63;;;18.85;;
71298;SDS011;59083;47.974;21.722;2023-02-15T18:59:23;45.78;;;19.87;;
71298;SDS011;59083;47.974;21.722;2023-02-15T19:02:25;49.88;;;20.45;;
71298;SDS011;59083;47.974;21.722;2023-02-15T19:05:28;57.08;;;21.02;;
71298;SDS011;59083;47.974;21.722;2023-02-15T19:08:31;46.73;;;19.07;;
71298;SDS011;59083;47.974;21.722;2023-02-15T19:11:32;46.35;;;20.00;;
71298;SDS011;59083;47.974;21.722;2023-02-15T19:14:33;48.87;;;19.77;;
71298;SDS011;59083;47.974;21.722;2023-02-15T19:17:35;45.78;;;18.75;;
71298;SDS011;59083;47.974;21.722;2023-02-15T19:20:40;44.28;;;19.27;;
71298;SDS011;59083;47.974;21.722;2023-02-15T19:23:45;55.33;;;20.20;;
71298;SDS011;59083;47.974;21.722;2023-02-15T19:26:51;45.35;;;18.73;;
71298;SDS011;59083;47.974;21.722;2023-02-15T19:29:53;50.75;;;19.12;;
71298;SDS011;59083;47.974;21.722;2023-02-15T19:32:58;46.53;;;19.27;;
71298;SDS011;59083;47.974;21.722;2023-02-15T19:36:00;46.58;;;18.85;;
71298;SDS011;59083;47.974;21.722;2023-02-15T19:39:01;51.80;;;20.40;;
71298;SDS011;59083;47.974;21.722;2023-02-15T19:42:03;51.95;;;20.65;;
71298;SDS011;59083;47.974;21.722;2023-02-15T19:45:11;47.97;;;19.40;;
71298;SDS011;59083;47.974;21.722;2023-02-15T19:48:14;48.50;;;19.98;;
71298;SDS011;59083;47.974;21.722;2023-02-15T19:51:15;47.72;;;20.77;;
71298;SDS011;59083;47.974;21.722;2023-02-15T19:54:26;56.37;;;20.30;;
71298;SDS011;59083;47.974;21.722;2023-02-15T19:57:32;53.03;;;21.55;;
71298;SDS011;59083;47.974;21.722;2023-02-15T20:00:34;50.10;;;20.33;;
71298;SDS011;59083;47.974;21.722;2023-02-15T20:03:35;47.30;;;20.33;;
71298;SDS011;59083;47.974;21.722;2023-02-15T20:06:36;50.72;;;20.77;;
71298;SDS011;59083;47.974;21.722;2023-02-15T20:09:37;52.17;;;20.93;;
71298;SDS011;59083;47.974;21.722;2023-02-15T20:12:40;49.75;;;20.33;;
71298;SDS011;59083;47.974;21.722;2023-02-15T20:15:42;52.22;;;22.55;;
71298;SDS011;59083;47.974;21.722;2023-02-15T20:18:44;55.92;;;22.50;;